Time;durP1;ratioP1;P1;durP2;ratioP2;P2;SDS_P1;SDS_P2;PMS_P1;PMS_P2;Temp;Humidity;BMP_temperature;BMP_pressure;BME280_temperature;BME280_humidity;BME280_pressure;Samples;Min_cycle;Max_cycle;Signal;HPM_P1;HPM_P2
2023/12/14 00:00:10;;;;;;;14.27;8.25;;;4.10;93.60;;;;;;5073166;28;20100;-48
2023/12/14 00:02:37;;;;;;;17.30;9.60;;;4.10;93.50;;;;;;5055882;28;20050;-49
2023/12/14 00:05:04;;;;;;;13.50;8.60;;;4.10;93.50;;;;;;5069077;28;20405;-48
2023/12/14 00:07:31;;;;;;;17.02;8.13;;;4.10;93.40;;;;;;5073177;28;20036;-47
2023/12/14 00:09:58;;;;;;;12.38;7.35;;;4.10;93.30;;;;;;5073357;28;20526;-49
2023/12/14 00:12:23;;;;;;;16.15;9.15;;;4.10;93.20;;;;;;5073484;28;20093;-49
2023/12/14 00:14:50;;;;;;;18.88;9.02;;;4.10;93.20;;;;;;5073045;28;20024;-47
2023/12/14 00:17:18;;;;;;;17.20;8.48;;;4.10;93.10;;;;;;5073734;28;20036;-50
2023/12/14 00:19:45;;;;;;;12.55;8.75;;;4.10;93.10;;;;;;5073015;28;20017;-47
2023/12/14 00:22:13;;;;;;;16.30;9.18;;;4.10;93.10;;;;;;5073025;28;20035;-48
2023/12/14 00:24:40;;;;;;;15.98;8.55;;;4.10;93.10;;;;;;5076831;28;20036;-47
2023/12/14 00:27:06;;;;;;;15.15;8.88;;;4.00;93.20;;;;;;5072958;28;20032;-50
2023/12/14 00:29:34;;;;;;;19.92;8.77;;;4.00;93.20;;;;;;5073048;28;20338;-49
2023/12/14 00:32:02;;;;;;;16.67;9.43;;;4.00;93.30;;;;;;5073140;28;20032;-47
2023/12/14 00:34:29;;;;;;;21.63;10.10;;;4.00;93.30;;;;;;5072985;28;20016;-47
2023/12/14 00:36:55;;;;;;;15.85;9.80;;;4.10;93.40;;;;;;5072735;28;20437;-52
2023/12/14 00:39:21;;;;;;;13.52;8.60;;;4.00;93.40;;;;;;5072897;28;20074;-49
2023/12/14 00:41:49;;;;;;;15.75;9.73;;;4.00;93.50;;;;;;5072462;28;20028;-47
2023/12/14 00:44:16;;;;;;;18.08;9.05;;;4.00;93.50;;;;;;5068366;28;20060;-48
2023/12/14 00:46:44;;;;;;;20.27;10.55;;;4.00;93.60;;;;;;5072869;28;20036;-50
2023/12/14 00:49:09;;;;;;;16.83;10.57;;;4.10;93.50;;;;;;5072581;28;20025;-48
2023/12/14 00:51:37;;;;;;;16.52;9.35;;;4.10;93.50;;;;;;5073160;28;20103;-49
2023/12/14 00:54:04;;;;;;;15.25;8.05;;;4.00;93.40;;;;;;5072995;28;20049;-51
2023/12/14 00:56:31;;;;;;;13.48;8.65;;;4.00;93.40;;;;;;5073057;28;20341;-47
2023/12/14 00:58:58;;;;;;;18.63;9.38;;;4.00;93.30;;;;;;5072977;28;20021;-48
2023/12/14 01:01:24;;;;;;;20.50;10.20;;;4.00;93.30;;;;;;5072516;28;20021;-47
2023/12/14 01:03:49;;;;;;;20.08;9.80;;;4.00;93.30;;;;;;5072286;28;20468;-47
2023/12/14 01:06:16;;;;;;;21.02;12.35;;;4.00;93.30;;;;;;5072503;28;20082;-51
2023/12/14 01:08:44;;;;;;;16.83;9.40;;;4.00;93.30;;;;;;5072123;28;20028;-48
2023/12/14 01:11:12;;;;;;;15.48;9.63;;;3.90;93.30;;;;;;5072444;28;20487;-47
2023/12/14 01:13:38;;;;;;;13.82;8.35;;;4.00;93.30;;;;;;5072769;28;20353;-49
2023/12/14 01:16:06;;;;;;;20.25;10.23;;;4.00;93.30;;;;;;5072463;28;20024;-47
2023/12/14 01:18:35;;;;;;;17.08;9.40;;;4.00;93.30;;;;;;5072723;28;20039;-48
2023/12/14 01:21:03;;;;;;;19.65;9.98;;;3.90;93.40;;;;;;5072541;28;20086;-47
2023/12/14 01:23:31;;;;;;;15.38;9.65;;;4.00;93.30;;;;;;5061163;28;20445;-47
2023/12/14 01:25:59;;;;;;;18.15;10.77;;;4.00;93.30;;;;;;5078444;28;20071;-49
2023/12/14 01:28:28;;;;;;;32.78;11.40;;;3.90;93.20;;;;;;5072369;28;20067;-50
2023/12/14 01:30:56;;;;;;;16.23;11.13;;;3.90;93.20;;;;;;5073744;28;20020;-49
2023/12/14 01:33:24;;;;;;;;;;;3.90;93.10;;;;;;5076809;28;20028;-48
2023/12/14 01:35:52;;;;;;;19.85;10.07;;;3.90;93.10;;;;;;5076759;28;19916;-47
2023/12/14 01:38:20;;;;;;;20.33;10.95;;;3.90;93.10;;;;;;5076075;28;20060;-48
2023/12/14 01:40:46;;;;;;;26.08;12.52;;;3.90;93.00;;;;;;5076199;28;20021;-48
2023/12/14 01:43:13;;;;;;;21.90;10.70;;;3.90;93.10;;;;;;5076186;28;20028;-48
2023/12/14 01:45:40;;;;;;;19.92;10.40;;;3.90;93.00;;;;;;5076193;28;20085;-47
2023/12/14 01:48:06;;;;;;;21.65;10.75;;;3.90;93.00;;;;;;5075756;28;20039;-47
2023/12/14 01:50:34;;;;;;;15.30;9.43;;;3.90;93.00;;;;;;5075820;28;20021;-47
2023/12/14 01:53:02;;;;;;;24.20;10.82;;;3.90;93.00;;;;;;5076025;28;20438;-48
2023/12/14 01:55:30;;;;;;;18.08;10.40;;;3.90;93.10;;;;;;5075527;28;20020;-47
2023/12/14 01:57:59;;;;;;;21.38;10.98;;;3.90;93.10;;;;;;5076221;28;20036;-48
2023/12/14 02:00:51;;;;;;;23.57;11.07;;;3.90;93.10;;;;;;5057992;28;20055;-49
2023/12/14 02:03:18;;;;;;;20.83;13.65;;;4.00;93.20;;;;;;5076044;28;20033;-48
2023/12/14 02:05:46;;;;;;;20.73;10.43;;;4.00;93.30;;;;;;5075328;28;20052;-49
2023/12/14 02:08:13;;;;;;;17.85;11.43;;;3.90;93.20;;;;;;5075742;28;20116;-48
2023/12/14 02:10:39;;;;;;;17.30;10.48;;;3.90;93.30;;;;;;5057578;28;20032;-49
2023/12/14 02:13:04;;;;;;;20.02;10.82;;;3.90;93.40;;;;;;5075826;28;20074;-48
2023/12/14 02:15:31;;;;;;;21.80;10.70;;;3.90;93.40;;;;;;5075729;28;20025;-47
2023/12/14 02:17:58;;;;;;;18.30;11.23;;;3.90;93.50;;;;;;5075781;28;20391;-48
2023/12/14 02:20:25;;;;;;;21.70;10.77;;;4.00;93.40;;;;;;5075071;28;20088;-50
2023/12/14 02:23:09;;;;;;;21.88;12.55;;;3.90;93.30;;;;;;5076319;28;20103;-49
2023/12/14 02:25:36;;;;;;;18.48;11.63;;;3.90;93.20;;;;;;5095578;28;20085;-48
2023/12/14 02:28:04;;;;;;;20.70;11.15;;;3.90;93.30;;;;;;5089354;28;20028;-52
2023/12/14 02:30:32;;;;;;;18.70;10.73;;;3.90;93.40;;;;;;5074998;28;20021;-48
2023/12/14 02:32:57;;;;;;;28.33;11.35;;;3.90;93.40;;;;;;5075255;28;20051;-49
2023/12/14 02:35:24;;;;;;;21.45;11.80;;;3.90;93.40;;;;;;5075034;28;20020;-48
2023/12/14 02:37:50;;;;;;;19.55;11.48;;;3.90;93.40;;;;;;5074839;28;20469;-54
2023/12/14 02:40:19;;;;;;;20.05;11.73;;;3.90;93.40;;;;;;5075564;28;20036;-49
2023/12/14 02:42:46;;;;;;;18.33;12.10;;;3.80;93.30;;;;;;5074650;28;20469;-49
2023/12/14 02:45:12;;;;;;;16.88;11.07;;;3.90;93.40;;;;;;5074847;28;20315;-51
2023/12/14 02:47:40;;;;;;;22.65;12.45;;;3.90;93.40;;;;;;5074780;28;20032;-49
2023/12/14 02:50:08;;;;;;;23.30;13.02;;;3.90;93.40;;;;;;5074855;28;20455;-51
2023/12/14 02:52:36;;;;;;;25.27;11.20;;;3.90;93.40;;;;;;5074653;28;20108;-48
2023/12/14 02:55:05;;;;;;;18.10;11.20;;;3.90;93.40;;;;;;5074613;28;20021;-50
2023/12/14 02:57:32;;;;;;;19.60;12.93;;;3.80;93.40;;;;;;5074937;28;20036;-48
2023/12/14 03:00:00;;;;;;;22.17;12.30;;;3.80;93.30;;;;;;5074518;28;20028;-48
2023/12/14 03:02:27;;;;;;;27.65;13.70;;;3.80;93.30;;;;;;5074722;28;20086;-48
2023/12/14 03:04:53;;;;;;;21.50;13.10;;;3.80;93.20;;;;;;5059110;28;20029;-49
2023/12/14 03:07:19;;;;;;;21.15;11.88;;;3.70;93.20;;;;;;5053105;28;20111;-49
2023/12/14 03:09:47;;;;;;;27.02;13.55;;;3.70;93.10;;;;;;5054135;28;20057;-50
2023/12/14 03:12:14;;;;;;;23.13;12.35;;;3.70;93.20;;;;;;5068720;28;20361;-49
2023/12/14 03:14:40;;;;;;;23.35;14.07;;;3.70;93.10;;;;;;5074008;28;20122;-51
2023/12/14 03:17:12;;;;;;;22.73;13.10;;;3.70;93.20;;;;;;5073555;28;20025;-49
2023/12/14 03:19:42;;;;;;;25.58;12.25;;;3.70;93.20;;;;;;5073368;28;20033;-52
2023/12/14 03:22:10;;;;;;;22.05;12.13;;;3.70;93.20;;;;;;5074167;28;20033;-48
2023/12/14 03:24:38;;;;;;;22.88;12.75;;;3.70;93.20;;;;;;5079196;28;20089;-52
2023/12/14 03:27:06;;;;;;;25.13;12.65;;;3.60;93.20;;;;;;5074064;28;20116;-49
2023/12/14 03:29:34;;;;;;;22.73;12.10;;;3.60;93.20;;;;;;5073654;28;20028;-48
2023/12/14 03:32:00;;;;;;;29.20;13.48;;;3.60;93.30;;;;;;5072916;28;20083;-50
2023/12/14 03:34:27;;;;;;;24.90;13.10;;;3.60;93.30;;;;;;5072996;28;20028;-48
2023/12/14 03:36:55;;;;;;;20.52;13.10;;;3.60;93.40;;;;;;5072907;28;20028;-50
2023/12/14 03:39:23;;;;;;;21.95;12.85;;;3.60;93.30;;;;;;5073865;28;20098;-48
2023/12/14 03:41:48;;;;;;;22.88;13.63;;;3.60;93.40;;;;;;5073868;28;20020;-51
2023/12/14 03:44:14;;;;;;;22.52;11.95;;;3.60;93.30;;;;;;5072971;28;20086;-49
2023/12/14 03:46:41;;;;;;;21.50;11.95;;;3.50;93.30;;;;;;5073572;28;20024;-54
2023/12/14 03:49:10;;;;;;;25.55;13.10;;;3.50;93.30;;;;;;5073672;28;20389;-49
2023/12/14 03:51:38;;;;;;;23.90;13.23;;;3.50;93.30;;;;;;5073053;28;20028;-51
2023/12/14 03:54:05;;;;;;;19.38;12.38;;;3.50;93.30;;;;;;5071703;28;20028;-48
2023/12/14 03:56:32;;;;;;;22.52;13.40;;;3.50;93.20;;;;;;5070600;28;20385;-49
2023/12/14 03:58:58;;;;;;;20.98;12.98;;;3.50;93.20;;;;;;5072890;28;20043;-49
2023/12/14 04:01:26;;;;;;;20.42;12.13;;;3.50;93.20;;;;;;5073664;28;20020;-54
2023/12/14 04:03:53;;;;;;;26.77;14.85;;;3.50;93.40;;;;;;5072406;28;20025;-49
2023/12/14 04:06:20;;;;;;;22.70;12.73;;;3.50;93.40;;;;;;5073239;28;20052;-48
2023/12/14 04:08:46;;;;;;;24.80;13.68;;;3.50;93.30;;;;;;5073589;28;20028;-49
2023/12/14 04:11:13;;;;;;;25.48;13.43;;;3.50;93.30;;;;;;5073260;28;20440;-48
2023/12/14 04:13:40;;;;;;;26.25;13.27;;;3.50;93.30;;;;;;5056004;28;20040;-51
2023/12/14 04:16:07;;;;;;;29.95;15.30;;;3.50;93.40;;;;;;5073238;28;20345;-52
2023/12/14 04:18:37;;;;;;;27.70;14.45;;;3.50;93.50;;;;;;5073397;28;20048;-48
2023/12/14 04:21:13;;;;;;;21.60;13.20;;;3.50;93.60;;;;;;5093141;28;20036;-50
2023/12/14 04:23:40;;;;;;;26.38;13.35;;;3.50;93.60;;;;;;5093089;28;20186;-50
2023/12/14 04:26:09;;;;;;;23.85;12.35;;;3.50;93.40;;;;;;5093529;28;20063;-52
2023/12/14 04:28:36;;;;;;;21.08;11.70;;;3.50;93.40;;;;;;5088997;28;20111;-52
2023/12/14 04:31:02;;;;;;;29.27;13.55;;;3.50;93.50;;;;;;5073092;28;20090;-52
2023/12/14 04:33:29;;;;;;;25.10;13.80;;;3.50;93.60;;;;;;5072997;28;20021;-51
2023/12/14 04:35:56;;;;;;;25.63;13.70;;;3.50;93.50;;;;;;5073134;28;20698;-48
2023/12/14 04:38:22;;;;;;;23.67;12.70;;;3.50;93.50;;;;;;5072821;28;20450;-50
2023/12/14 04:40:50;;;;;;;26.55;12.75;;;3.50;93.50;;;;;;5055191;28;20035;-53
2023/12/14 04:43:15;;;;;;;23.48;12.48;;;3.50;93.50;;;;;;5072752;28;20028;-52
2023/12/14 04:45:42;;;;;;;21.80;11.63;;;3.50;93.60;;;;;;5054940;28;20104;-50
2023/12/14 04:48:11;;;;;;;21.63;12.52;;;3.50;93.60;;;;;;5073179;28;20031;-51
2023/12/14 04:50:39;;;;;;;22.83;13.05;;;3.50;93.60;;;;;;5072543;28;20038;-50
2023/12/14 04:53:05;;;;;;;25.42;13.63;;;3.60;93.50;;;;;;5072571;28;20042;-50
2023/12/14 04:55:32;;;;;;;23.77;12.60;;;3.50;93.40;;;;;;5072707;28;20485;-50
2023/12/14 04:57:59;;;;;;;17.73;11.77;;;3.50;93.40;;;;;;5072516;28;20029;-50
2023/12/14 05:00:24;;;;;;;26.00;13.35;;;3.50;93.40;;;;;;5072712;28;20036;-52
2023/12/14 05:02:52;;;;;;;20.08;12.50;;;3.60;93.40;;;;;;5073156;28;20117;-51
2023/12/14 05:05:20;;;;;;;19.15;11.45;;;3.50;93.40;;;;;;5072734;28;20091;-51
2023/12/14 05:07:46;;;;;;;26.10;13.05;;;3.50;93.30;;;;;;5076947;28;20048;-50
2023/12/14 05:10:13;;;;;;;27.73;13.23;;;3.50;93.30;;;;;;5073053;28;20739;-51
2023/12/14 05:12:41;;;;;;;20.63;11.40;;;3.50;93.30;;;;;;5076446;28;20111;-51
2023/12/14 05:15:10;;;;;;;21.80;11.52;;;3.50;93.30;;;;;;5076267;28;20020;-55
2023/12/14 05:17:37;;;;;;;20.38;11.15;;;3.50;93.20;;;;;;5075937;28;20462;-53
2023/12/14 05:20:08;;;;;;;15.82;9.93;;;3.60;93.20;;;;;;5075806;28;20044;-51
2023/12/14 05:22:35;;;;;;;22.35;10.35;;;3.60;93.30;;;;;;5076769;28;20039;-51
2023/12/14 05:25:02;;;;;;;19.25;12.07;;;3.60;93.10;;;;;;5095840;28;20028;-51
2023/12/14 05:27:31;;;;;;;20.95;11.05;;;3.50;93.20;;;;;;5096368;28;20028;-51
2023/12/14 05:29:56;;;;;;;17.15;10.93;;;3.50;93.20;;;;;;5076312;28;20040;-52
2023/12/14 05:32:24;;;;;;;20.83;10.25;;;3.50;93.20;;;;;;5076163;28;20013;-53
2023/12/14 05:34:50;;;;;;;21.55;12.60;;;3.60;93.10;;;;;;5058881;28;20021;-51
2023/12/14 05:37:17;;;;;;;21.75;11.75;;;3.60;93.20;;;;;;5075938;28;20081;-51
2023/12/14 05:39:45;;;;;;;21.48;10.32;;;3.60;93.20;;;;;;5075765;28;20028;-51
2023/12/14 05:42:11;;;;;;;17.70;10.20;;;3.60;93.20;;;;;;5075630;28;20040;-50
2023/12/14 05:44:37;;;;;;;16.83;9.88;;;3.60;93.10;;;;;;5076269;28;20025;-52
2023/12/14 05:47:04;;;;;;;18.25;10.48;;;3.60;93.10;;;;;;5075769;28;20035;-50
2023/12/14 05:49:31;;;;;;;19.50;10.45;;;3.60;93.20;;;;;;5095244;28;20043;-53
2023/12/14 05:51:59;;;;;;;22.17;10.48;;;3.70;93.20;;;;;;5094647;28;20033;-51
2023/12/14 05:54:25;;;;;;;17.15;10.38;;;3.60;93.20;;;;;;5078201;28;20103;-53
2023/12/14 05:56:52;;;;;;;18.80;9.80;;;3.60;93.20;;;;;;5084873;28;20103;-49
2023/12/14 05:59:19;;;;;;;17.27;10.20;;;3.60;93.20;;;;;;5075607;28;20036;-53
2023/12/14 06:01:47;;;;;;;20.33;10.07;;;3.70;93.20;;;;;;5057908;28;20043;-54
2023/12/14 06:04:14;;;;;;;18.02;10.15;;;3.70;93.20;;;;;;5075941;28;20040;-48
2023/12/14 06:06:40;;;;;;;22.25;9.65;;;3.70;93.20;;;;;;5074495;28;20049;-50
2023/12/14 06:09:07;;;;;;;14.95;9.95;;;3.70;93.20;;;;;;5074356;28;20021;-54
2023/12/14 06:11:34;;;;;;;17.27;10.15;;;3.70;93.30;;;;;;5074892;28;20098;-52
2023/12/14 06:14:01;;;;;;;18.50;9.93;;;3.70;93.20;;;;;;5074316;28;20560;-51
2023/12/14 06:16:27;;;;;;;17.08;10.38;;;3.70;93.10;;;;;;5073680;28;20761;-49
2023/12/14 06:18:53;;;;;;;14.20;9.98;;;3.70;93.20;;;;;;5074519;28;20094;-52
2023/12/14 06:21:20;;;;;;;15.43;8.38;;;3.80;93.20;;;;;;5074036;28;20037;-53
2023/12/14 06:23:47;;;;;;;15.52;8.45;;;3.70;93.10;;;;;;5092060;28;20453;-49
2023/12/14 06:26:15;;;;;;;21.05;8.80;;;3.70;93.00;;;;;;5078934;28;20347;-52
2023/12/14 06:28:41;;;;;;;14.27;8.82;;;3.80;93.00;;;;;;5074085;28;20020;-50
2023/12/14 06:31:14;;;;;;;14.75;9.80;;;3.70;93.00;;;;;;5074449;28;20365;-53
2023/12/14 06:33:41;;;;;;;15.63;10.73;;;3.70;93.00;;;;;;5074266;28;20059;-51
2023/12/14 06:36:10;;;;;;;11.65;8.40;;;3.70;93.00;;;;;;5074179;28;20090;-49
2023/12/14 06:38:40;;;;;;;14.60;9.50;;;3.80;93.00;;;;;;5074030;28;20387;-54
2023/12/14 06:41:08;;;;;;;17.92;9.95;;;3.70;93.00;;;;;;5074354;28;20039;-51
2023/12/14 06:43:40;;;;;;;16.58;9.20;;;3.80;92.90;;;;;;5056956;28;20121;-53
2023/12/14 06:46:09;;;;;;;15.98;9.70;;;3.70;92.90;;;;;;5073193;28;20075;-52
2023/12/14 06:48:36;;;;;;;15.95;9.07;;;3.70;92.80;;;;;;5073686;28;20070;-53
2023/12/14 06:51:05;;;;;;;16.05;9.30;;;3.80;92.90;;;;;;5073452;28;20082;-54
2023/12/14 06:53:30;;;;;;;20.40;9.25;;;3.80;92.80;;;;;;5073424;28;20024;-53
2023/12/14 06:55:57;;;;;;;17.80;9.20;;;3.80;92.80;;;;;;5073317;28;20028;-54
2023/12/14 06:58:24;;;;;;;15.73;8.98;;;3.80;92.90;;;;;;5073812;28;20036;-51
2023/12/14 07:00:51;;;;;;;12.00;7.85;;;3.80;92.90;;;;;;5073675;28;20522;-53
2023/12/14 07:03:19;;;;;;;15.20;8.77;;;3.80;93.00;;;;;;5073039;28;20303;-54
2023/12/14 07:05:45;;;;;;;13.43;8.53;;;3.80;92.80;;;;;;4956054;28;3349988;-52
2023/12/14 07:08:11;;;;;;;19.70;8.77;;;3.80;92.90;;;;;;5074844;28;20143;-50
2023/12/14 07:10:36;;;;;;;16.75;9.43;;;3.80;92.90;;;;;;5074238;28;20099;-48
2023/12/14 07:13:02;;;;;;;17.75;9.50;;;3.80;92.80;;;;;;5057391;28;20052;-50
2023/12/14 07:15:29;;;;;;;17.20;8.90;;;3.80;92.80;;;;;;5074686;28;20021;-48
2023/12/14 07:17:55;;;;;;;16.27;9.27;;;3.80;92.80;;;;;;5074078;28;20505;-49
2023/12/14 07:20:23;;;;;;;16.42;8.80;;;3.80;92.80;;;;;;5074311;28;20131;-51
2023/12/14 07:22:49;;;;;;;16.17;9.07;;;3.80;92.70;;;;;;5075322;28;20028;-50
2023/12/14 07:25:16;;;;;;;19.73;8.95;;;3.80;92.70;;;;;;5114773;28;20520;-54
2023/12/14 07:27:43;;;;;;;14.45;8.85;;;3.80;92.60;;;;;;5114142;28;20027;-54
2023/12/14 07:30:09;;;;;;;13.60;8.20;;;3.80;92.60;;;;;;5073132;28;20028;-53
2023/12/14 07:32:36;;;;;;;20.05;10.63;;;3.80;92.70;;;;;;5073917;28;20035;-49
2023/12/14 07:35:06;;;;;;;15.90;8.80;;;3.90;92.70;;;;;;5073893;28;20024;-50
2023/12/14 07:37:32;;;;;;;;;;;3.90;92.60;;;;;;5074192;28;20024;-52
2023/12/14 07:39:59;;;;;;;13.45;8.23;;;3.80;92.50;;;;;;5074027;28;20003;-51
2023/12/14 07:42:26;;;;;;;16.00;8.43;;;3.80;92.60;;;;;;5073771;28;20343;-52
2023/12/14 07:44:55;;;;;;;14.85;8.68;;;3.80;92.60;;;;;;5057014;28;20035;-50
2023/12/14 07:47:23;;;;;;;15.50;9.05;;;3.80;92.60;;;;;;5073562;28;20021;-52
2023/12/14 07:49:51;;;;;;;14.52;8.88;;;3.80;92.60;;;;;;5073319;28;20033;-53
2023/12/14 07:52:16;;;;;;;17.10;8.02;;;3.80;92.70;;;;;;5073333;28;20496;-52
2023/12/14 07:54:43;;;;;;;14.23;8.00;;;3.80;92.70;;;;;;5073525;28;20025;-55
2023/12/14 07:57:11;;;;;;;16.25;7.53;;;3.80;92.60;;;;;;5073278;28;20100;-50
2023/12/14 07:59:39;;;;;;;13.27;8.10;;;3.90;92.60;;;;;;5073373;28;20059;-48
2023/12/14 08:02:06;;;;;;;20.88;8.88;;;3.80;92.70;;;;;;5072691;28;20042;-51
2023/12/14 08:04:33;;;;;;;16.00;8.35;;;3.90;92.60;;;;;;5073531;28;20055;-54
2023/12/14 08:07:01;;;;;;;13.55;8.02;;;3.90;92.70;;;;;;5072559;28;20437;-51
2023/12/14 08:09:29;;;;;;;12.65;7.55;;;3.90;92.60;;;;;;5072880;28;20457;-48
2023/12/14 08:11:58;;;;;;;14.52;8.20;;;3.90;92.70;;;;;;5073362;28;20028;-50
2023/12/14 08:14:24;;;;;;;15.52;8.05;;;3.90;92.60;;;;;;5073479;28;20075;-50
2023/12/14 08:16:50;;;;;;;15.35;9.02;;;3.90;92.60;;;;;;5073174;28;20055;-51
2023/12/14 08:19:17;;;;;;;13.18;8.70;;;3.90;92.60;;;;;;5073727;28;20028;-53
2023/12/14 08:21:44;;;;;;;16.40;8.02;;;3.90;92.50;;;;;;5073211;28;20039;-50
2023/12/14 08:24:11;;;;;;;14.23;8.02;;;3.90;92.60;;;;;;5075858;28;20117;-51
2023/12/14 08:26:38;;;;;;;15.20;8.40;;;3.90;92.60;;;;;;5073268;28;20060;-49
2023/12/14 08:29:04;;;;;;;14.27;7.95;;;3.90;92.60;;;;;;5073037;28;20071;-51
2023/12/14 08:31:33;;;;;;;12.25;8.68;;;4.00;92.50;;;;;;5072824;28;20056;-50
2023/12/14 08:33:59;;;;;;;14.10;7.82;;;4.00;92.50;;;;;;5073282;28;20115;-53
2023/12/14 08:36:27;;;;;;;15.02;7.95;;;4.00;92.60;;;;;;5055299;28;20049;-51
2023/12/14 08:38:54;;;;;;;14.07;8.35;;;4.00;92.60;;;;;;5072986;28;20021;-52
2023/12/14 08:41:20;;;;;;;12.85;8.82;;;4.10;92.50;;;;;;5072932;28;20466;-50
2023/12/14 08:43:47;;;;;;;16.23;9.65;;;4.10;92.30;;;;;;5073151;28;20116;-54
2023/12/14 08:46:15;;;;;;;14.13;8.27;;;4.10;92.30;;;;;;5073059;28;20032;-53
2023/12/14 08:48:43;;;;;;;13.68;7.72;;;4.20;92.40;;;;;;5072880;28;20028;-49
2023/12/14 08:51:10;;;;;;;16.20;8.95;;;4.20;92.30;;;;;;5072818;28;20020;-55
2023/12/14 08:53:35;;;;;;;13.73;8.27;;;4.20;92.20;;;;;;5055466;28;20037;-53
2023/12/14 08:56:06;;;;;;;10.88;7.05;;;4.30;92.30;;;;;;5072713;28;20352;-49
2023/12/14 08:58:33;;;;;;;13.88;8.02;;;4.30;92.20;;;;;;5073010;28;20128;-53
2023/12/14 09:01:00;;;;;;;11.20;8.30;;;4.30;92.20;;;;;;5072751;28;20028;-53
2023/12/14 09:03:28;;;;;;;11.68;7.43;;;4.30;92.00;;;;;;5054738;28;20598;-49
2023/12/14 09:05:56;;;;;;;13.77;9.00;;;4.40;92.10;;;;;;5072704;28;20557;-51
2023/12/14 09:08:23;;;;;;;12.50;9.10;;;4.40;91.90;;;;;;5072412;28;20131;-48
2023/12/14 09:10:51;;;;;;;16.60;8.52;;;4.40;92.00;;;;;;5072549;28;20392;-49
2023/12/14 09:13:19;;;;;;;12.45;8.55;;;4.40;91.80;;;;;;5073224;28;20058;-51
2023/12/14 09:15:44;;;;;;;15.75;8.63;;;4.50;91.90;;;;;;5072684;28;20020;-52
2023/12/14 09:18:12;;;;;;;12.88;8.25;;;4.50;91.70;;;;;;5072394;28;20021;-52
2023/12/14 09:20:40;;;;;;;11.38;8.18;;;4.50;91.50;;;;;;5073281;28;20047;-51
2023/12/14 09:23:07;;;;;;;12.57;7.82;;;4.50;91.60;;;;;;5075978;28;20032;-49
2023/12/14 09:25:35;;;;;;;14.25;9.00;;;4.50;91.50;;;;;;5088138;28;20468;-51
2023/12/14 09:28:02;;;;;;;14.18;7.93;;;4.60;91.30;;;;;;5054569;28;20564;-49
2023/12/14 09:30:30;;;;;;;17.27;8.32;;;4.60;91.30;;;;;;5072938;28;20060;-49
2023/12/14 09:32:57;;;;;;;11.90;6.93;;;4.60;91.10;;;;;;5072400;28;20035;-49
2023/12/14 09:35:25;;;;;;;11.80;8.20;;;4.60;91.00;;;;;;5072581;28;20100;-49
2023/12/14 09:37:53;;;;;;;12.63;9.30;;;4.70;91.10;;;;;;5072374;28;20021;-51
2023/12/14 09:40:19;;;;;;;23.83;14.35;;;4.70;91.00;;;;;;5072465;28;20069;-50
2023/12/14 09:42:46;;;;;;;19.45;13.43;;;4.70;90.90;;;;;;5072450;28;20074;-50
2023/12/14 09:45:13;;;;;;;11.75;7.75;;;4.70;90.70;;;;;;5072595;28;20044;-51
2023/12/14 09:47:41;;;;;;;26.38;18.55;;;4.70;90.60;;;;;;5072736;28;20350;-49
2023/12/14 09:50:10;;;;;;;43.92;28.73;;;4.80;90.50;;;;;;5038596;28;20036;-51
2023/12/14 09:52:35;;;;;;;67.00;43.40;;;4.80;90.50;;;;;;5074477;28;20028;-48
2023/12/14 09:55:03;;;;;;;40.65;27.52;;;4.90;90.40;;;;;;5076086;28;20036;-51
2023/12/14 09:57:31;;;;;;;25.63;15.90;;;4.90;90.50;;;;;;5059064;28;20032;-49
2023/12/14 09:59:59;;;;;;;21.45;15.32;;;4.90;90.40;;;;;;5075859;28;20120;-49
2023/12/14 10:02:27;;;;;;;18.25;8.75;;;4.90;90.40;;;;;;5076489;28;20342;-51
2023/12/14 10:04:55;;;;;;;11.25;7.85;;;5.00;90.30;;;;;;5058119;28;20033;-54
2023/12/14 10:07:26;;;;;;;11.48;7.10;;;5.00;90.40;;;;;;5076079;28;20082;-51
2023/12/14 10:09:55;;;;;;;9.75;6.97;;;5.10;90.20;;;;;;5075533;28;20176;-49
2023/12/14 10:12:24;;;;;;;;;;;5.10;90.30;;;;;;5075912;28;20043;-51
2023/12/14 10:15:01;;;;;;;10.75;7.57;;;5.10;90.20;;;;;;5075629;28;19912;-50
2023/12/14 10:17:31;;;;;;;11.85;8.35;;;5.10;89.90;;;;;;5075952;28;20485;-52
2023/12/14 10:20:03;;;;;;;9.07;6.72;;;5.10;89.80;;;;;;5075197;28;20446;-48
2023/12/14 10:22:32;;;;;;;9.65;6.03;;;5.10;89.70;;;;;;5075424;28;20485;-53
2023/12/14 10:25:00;;;;;;;9.60;6.53;;;5.20;89.80;;;;;;5079851;28;20070;-53
2023/12/14 10:27:31;;;;;;;10.50;7.30;;;5.20;89.80;;;;;;5075545;28;20374;-49
2023/12/14 10:29:59;;;;;;;9.52;6.03;;;5.20;89.90;;;;;;5075209;28;20111;-49
2023/12/14 10:32:26;;;;;;;11.95;6.18;;;5.30;90.10;;;;;;5075251;28;20077;-49
2023/12/14 10:34:51;;;;;;;11.00;6.68;;;5.30;89.70;;;;;;5074951;28;20060;-48
2023/12/14 10:37:18;;;;;;;10.93;7.13;;;5.30;89.20;;;;;;5075127;28;20079;-51
2023/12/14 10:39:46;;;;;;;10.13;6.35;;;5.30;89.40;;;;;;5075437;28;20056;-48
2023/12/14 10:42:16;;;;;;;9.55;6.28;;;5.40;89.50;;;;;;5057277;28;20434;-49
2023/12/14 10:44:43;;;;;;;11.15;6.22;;;5.40;89.50;;;;;;5071525;28;20055;-49
2023/12/14 10:47:10;;;;;;;11.23;7.07;;;5.40;89.30;;;;;;5057782;28;20036;-49
2023/12/14 10:49:36;;;;;;;227.60;93.65;;;5.40;89.30;;;;;;5074043;28;20461;-48
2023/12/14 10:52:04;;;;;;;46.53;19.70;;;5.50;89.20;;;;;;5072462;28;20062;-50
2023/12/14 10:54:36;;;;;;;16.38;9.63;;;5.50;89.10;;;;;;5055667;28;20041;-48
2023/12/14 10:57:04;;;;;;;20.77;14.73;;;5.50;88.90;;;;;;5057223;28;20174;-53
2023/12/14 10:59:34;;;;;;;11.43;9.48;;;5.60;88.80;;;;;;5072008;28;20036;-51
2023/12/14 11:02:14;;;;;;;12.30;6.85;;;5.60;89.10;;;;;;5075025;28;20029;-54
2023/12/14 11:05:05;;;;;;;11.40;6.57;;;5.70;88.90;;;;;;5041038;28;20067;-49
2023/12/14 11:07:54;;;;;;;8.80;5.97;;;5.80;88.70;;;;;;5074839;28;20053;-52
2023/12/14 11:10:43;;;;;;;8.20;5.93;;;5.80;88.00;;;;;;5074528;28;20307;-49
2023/12/14 11:13:12;;;;;;;15.82;7.10;;;5.90;88.30;;;;;;5065404;28;20043;-52
2023/12/14 11:15:50;;;;;;;10.55;6.35;;;6.00;88.50;;;;;;5056943;28;20450;-50
2023/12/14 11:18:21;;;;;;;13.13;6.60;;;6.00;88.00;;;;;;5074169;28;20029;-49
2023/12/14 11:21:06;;;;;;;9.43;5.70;;;5.90;87.60;;;;;;5074377;28;20040;-50
2023/12/14 11:23:51;;;;;;;10.50;5.90;;;5.90;87.70;;;;;;5080928;28;20024;-52
2023/12/14 11:26:25;;;;;;;12.82;8.02;;;5.90;87.80;;;;;;5093697;28;20135;-52
2023/12/14 11:28:53;;;;;;;19.13;6.32;;;5.90;87.90;;;;;;5060085;28;20438;-49
2023/12/14 11:31:22;;;;;;;12.68;6.90;;;5.80;87.80;;;;;;5074008;28;20043;-50
2023/12/14 11:33:49;;;;;;;13.25;7.93;;;5.80;87.80;;;;;;5056786;28;20028;-51
2023/12/14 11:36:16;;;;;;;17.75;7.53;;;5.70;87.60;;;;;;5073800;28;20039;-48
2023/12/14 11:38:44;;;;;;;14.63;7.45;;;5.80;87.90;;;;;;5056483;28;20035;-50
2023/12/14 11:41:10;;;;;;;8.85;6.40;;;5.80;87.90;;;;;;5074296;28;20039;-50
2023/12/14 11:43:44;;;;;;;12.57;6.78;;;5.80;87.90;;;;;;5073681;28;20115;-53
2023/12/14 11:46:11;;;;;;;11.15;7.25;;;5.90;88.00;;;;;;5056020;28;20422;-50
2023/12/14 11:48:37;;;;;;;11.25;6.13;;;5.90;87.70;;;;;;5057979;28;20422;-49
2023/12/14 11:51:05;;;;;;;11.00;6.15;;;5.80;87.80;;;;;;5073408;28;20442;-48
2023/12/14 11:53:33;;;;;;;10.68;6.13;;;5.80;87.90;;;;;;5073636;28;20048;-50
2023/12/14 11:56:02;;;;;;;9.27;6.57;;;5.80;87.80;;;;;;5073338;28;20025;-49
2023/12/14 11:58:36;;;;;;;11.20;7.18;;;5.80;87.90;;;;;;5073684;28;20032;-50
2023/12/14 12:01:18;;;;;;;12.15;6.10;;;5.80;87.90;;;;;;5073205;28;20353;-49
2023/12/14 12:03:46;;;;;;;12.32;7.10;;;5.70;88.10;;;;;;5074130;28;20040;-49
2023/12/14 12:06:27;;;;;;;10.05;7.90;;;5.60;87.90;;;;;;5072944;28;20048;-50
2023/12/14 12:08:53;;;;;;;11.85;6.13;;;5.50;88.00;;;;;;5073357;28;20021;-53
2023/12/14 12:11:28;;;;;;;11.90;5.97;;;5.50;88.20;;;;;;5073336;28;20026;-52
2023/12/14 12:14:06;;;;;;;12.50;7.60;;;5.40;88.20;;;;;;5072889;28;20020;-51
2023/12/14 12:16:33;;;;;;;11.38;7.18;;;5.40;88.40;;;;;;5072852;28;20017;-48
2023/12/14 12:18:59;;;;;;;16.05;8.95;;;5.40;88.70;;;;;;5072175;28;20040;-48
2023/12/14 12:21:26;;;;;;;15.45;7.60;;;5.40;88.80;;;;;;5072178;28;20450;-50
2023/12/14 12:23:54;;;;;;;13.65;8.02;;;5.40;88.80;;;;;;5081621;28;20031;-51
2023/12/14 12:26:22;;;;;;;12.80;7.90;;;5.40;88.80;;;;;;5091979;28;20088;-48
2023/12/14 12:28:49;;;;;;;15.23;8.05;;;5.50;88.70;;;;;;5079765;28;20042;-48
2023/12/14 12:31:15;;;;;;;13.52;7.63;;;5.50;88.60;;;;;;5071852;28;20494;-50
2023/12/14 12:33:40;;;;;;;12.27;6.72;;;5.50;88.50;;;;;;5071709;28;20107;-49
2023/12/14 12:36:07;;;;;;;11.18;7.07;;;5.50;88.60;;;;;;5071566;28;20113;-48
2023/12/14 12:38:33;;;;;;;11.70;6.68;;;5.50;88.90;;;;;;5071385;28;20094;-48
2023/12/14 12:41:01;;;;;;;16.35;10.43;;;5.50;88.80;;;;;;5071805;28;20024;-52
2023/12/14 12:43:29;;;;;;;12.40;8.35;;;5.50;88.60;;;;;;5071352;28;20032;-49
2023/12/14 12:45:57;;;;;;;10.38;7.93;;;5.50;88.60;;;;;;5071624;28;20453;-48